Time;durP1;ratioP1;P1;durP2;ratioP2;P2;SDS_P1;SDS_P2;PMS_P1;PMS_P2;Temp;Humidity;BMP_temperature;BMP_pressure;BME280_temperature;BME280_humidity;BME280_pressure;Samples;Min_cycle;Max_cycle;Signal;HPM_P1;HPM_P2
2022/03/06 00:01:17;;;;;;;3.35;1.50;;;2.40;70.00;;;;;;5113115;28;20502;-73
2022/03/06 00:03:44;;;;;;;3.58;1.58;;;2.40;70.10;;;;;;5077244;28;20040;-74
2022/03/06 00:06:11;;;;;;;3.00;1.55;;;2.40;70.20;;;;;;5112381;28;20396;-74
2022/03/06 00:08:36;;;;;;;2.75;1.38;;;2.40;70.20;;;;;;5094011;28;20055;-73
2022/03/06 00:11:03;;;;;;;2.88;1.38;;;2.30;70.30;;;;;;5112346;28;20044;-74
2022/03/06 00:13:28;;;;;;;2.75;1.30;;;2.30;70.30;;;;;;5112162;28;20040;-73
2022/03/06 00:15:54;;;;;;;1.98;1.25;;;2.20;70.40;;;;;;5094111;28;20050;-74
2022/03/06 00:18:20;;;;;;;2.15;1.25;;;2.20;70.50;;;;;;5077672;28;20039;-74
2022/03/06 00:20:46;;;;;;;2.30;1.30;;;2.20;70.50;;;;;;5093868;28;20043;-73
2022/03/06 00:23:11;;;;;;;2.60;1.13;;;2.10;70.50;;;;;;5093890;28;20046;-73
2022/03/06 00:25:37;;;;;;;3.28;1.45;;;2.10;70.60;;;;;;5112742;28;20036;-73
2022/03/06 00:28:03;;;;;;;2.95;1.23;;;2.10;70.70;;;;;;5112477;28;20078;-73
2022/03/06 00:30:29;;;;;;;3.45;1.50;;;2.00;70.80;;;;;;5112774;28;20465;-73
2022/03/06 00:32:55;;;;;;;3.03;1.58;;;2.00;70.80;;;;;;5112376;28;20043;-73
2022/03/06 00:35:22;;;;;;;2.72;1.30;;;1.90;70.80;;;;;;5114942;28;20035;-73
2022/03/06 00:37:47;;;;;;;3.65;1.38;;;2.00;71.00;;;;;;5115741;28;20036;-73
2022/03/06 00:40:13;;;;;;;2.78;1.42;;;1.90;71.00;;;;;;5097444;28;20085;-73
2022/03/06 00:42:39;;;;;;;2.47;1.33;;;1.90;71.00;;;;;;5097528;28;20032;-73
2022/03/06 00:45:05;;;;;;;1.83;0.93;;;1.80;71.00;;;;;;5115587;28;20031;-73
2022/03/06 00:47:31;;;;;;;3.35;1.48;;;1.80;71.00;;;;;;5115838;28;20106;-73
2022/03/06 00:49:57;;;;;;;3.38;1.40;;;1.70;71.20;;;;;;5097935;28;20032;-74
2022/03/06 00:52:23;;;;;;;2.22;1.17;;;1.70;71.20;;;;;;5115318;28;20430;-73
2022/03/06 00:54:49;;;;;;;2.90;1.25;;;1.70;71.20;;;;;;5115248;28;20040;-73
2022/03/06 00:57:15;;;;;;;2.35;1.10;;;1.70;71.30;;;;;;5080069;28;20092;-73
2022/03/06 00:59:40;;;;;;;3.03;1.30;;;1.70;71.30;;;;;;5115207;28;20118;-73
2022/03/06 01:02:06;;;;;;;2.90;1.52;;;1.70;71.30;;;;;;5097353;28;20036;-73
2022/03/06 01:04:34;;;;;;;2.22;1.15;;;1.70;71.30;;;;;;5115510;28;20111;-73
2022/03/06 01:07:00;;;;;;;2.67;1.50;;;1.60;71.30;;;;;;5113775;28;20039;-74
2022/03/06 01:09:26;;;;;;;3.53;1.50;;;1.70;71.40;;;;;;5115485;28;20036;-73
2022/03/06 01:11:52;;;;;;;3.65;1.50;;;1.60;71.30;;;;;;5115683;28;20051;-73
2022/03/06 01:14:18;;;;;;;3.15;1.55;;;1.60;71.30;;;;;;5115096;28;20050;-74
2022/03/06 01:16:44;;;;;;;2.58;1.30;;;1.50;71.30;;;;;;5115057;28;20036;-73
2022/03/06 01:19:10;;;;;;;3.55;1.50;;;1.50;71.30;;;;;;5115018;28;20096;-73
2022/03/06 01:21:35;;;;;;;3.70;1.45;;;1.50;71.40;;;;;;5079886;28;20130;-73
2022/03/06 01:24:01;;;;;;;3.33;1.50;;;1.50;71.50;;;;;;5096707;28;20044;-73
2022/03/06 01:26:27;;;;;;;3.38;1.45;;;1.50;71.50;;;;;;5096790;28;20047;-73
2022/03/06 01:28:52;;;;;;;3.00;1.27;;;1.40;71.50;;;;;;5096494;28;20039;-73
2022/03/06 01:31:19;;;;;;;2.80;1.38;;;1.40;71.50;;;;;;5115334;28;20066;-74
2022/03/06 01:33:45;;;;;;;2.90;1.48;;;1.40;71.50;;;;;;5114675;28;20822;-73
2022/03/06 01:36:11;;;;;;;3.45;1.42;;;1.40;71.50;;;;;;5114880;28;20055;-73
2022/03/06 01:38:36;;;;;;;2.95;1.45;;;1.40;71.60;;;;;;5096432;28;20393;-74
2022/03/06 01:41:03;;;;;;;1.95;1.10;;;1.40;71.60;;;;;;5115315;28;20114;-73
2022/03/06 01:43:28;;;;;;;3.30;1.50;;;1.40;71.60;;;;;;5096740;28;20481;-73
2022/03/06 01:45:54;;;;;;;3.60;1.77;;;1.40;71.70;;;;;;5113983;28;20131;-74
2022/03/06 01:48:20;;;;;;;3.45;1.75;;;1.30;71.70;;;;;;5096431;28;20401;-73
2022/03/06 01:50:46;;;;;;;3.03;1.30;;;1.30;71.70;;;;;;5114821;28;20039;-73
2022/03/06 01:53:12;;;;;;;1.80;1.05;;;1.30;71.70;;;;;;5114695;28;20126;-73
2022/03/06 01:55:40;;;;;;;2.15;1.20;;;1.30;71.70;;;;;;5114871;28;20489;-73
2022/03/06 01:58:08;;;;;;;2.60;1.27;;;1.20;71.80;;;;;;5114815;28;20088;-75
2022/03/06 02:00:36;;;;;;;1.80;1.17;;;1.20;71.90;;;;;;5114900;28;20031;-73
2022/03/06 02:03:03;;;;;;;1.80;0.98;;;1.10;71.80;;;;;;5114718;28;20394;-73
2022/03/06 02:05:29;;;;;;;1.90;1.15;;;1.20;71.90;;;;;;5114316;28;20069;-73
2022/03/06 02:07:55;;;;;;;2.13;1.00;;;1.20;72.00;;;;;;5079621;28;20043;-73
2022/03/06 02:10:20;;;;;;;2.70;1.23;;;1.20;72.10;;;;;;5096045;28;20036;-73
2022/03/06 02:12:47;;;;;;;2.35;0.98;;;1.10;72.10;;;;;;5095919;28;20469;-73
2022/03/06 02:15:14;;;;;;;2.35;1.23;;;1.00;72.10;;;;;;5114732;28;20118;-73
2022/03/06 02:17:40;;;;;;;2.05;1.00;;;1.10;72.20;;;;;;5114595;28;20046;-73
2022/03/06 02:20:11;;;;;;;3.05;1.40;;;1.00;72.10;;;;;;5095911;28;20126;-74
2022/03/06 02:22:39;;;;;;;1.90;1.00;;;1.00;72.20;;;;;;5112559;28;20036;-73
2022/03/06 02:25:08;;;;;;;1.92;1.23;;;1.00;72.20;;;;;;5079012;28;20169;-73
2022/03/06 02:27:35;;;;;;;2.22;1.25;;;1.00;72.30;;;;;;5095677;28;20043;-73
2022/03/06 02:30:07;;;;;;;2.20;1.17;;;1.00;72.30;;;;;;5095681;28;20073;-73
2022/03/06 02:32:35;;;;;;;2.13;1.20;;;0.90;72.30;;;;;;5079787;28;20055;-73
2022/03/06 02:35:01;;;;;;;2.33;1.10;;;0.90;72.30;;;;;;5114255;28;20058;-74
2022/03/06 02:37:26;;;;;;;3.33;1.40;;;0.90;72.40;;;;;;5113856;28;20124;-73
2022/03/06 02:39:53;;;;;;;1.88;0.95;;;0.90;72.50;;;;;;5113744;28;20071;-73
2022/03/06 02:42:32;;;;;;;2.15;0.98;;;0.80;72.40;;;;;;5114199;28;20039;-74
2022/03/06 02:44:59;;;;;;;2.00;0.93;;;0.80;72.50;;;;;;5112336;28;20049;-73
2022/03/06 02:47:26;;;;;;;2.67;1.20;;;0.80;72.50;;;;;;5095757;28;20481;-73
2022/03/06 02:49:51;;;;;;;1.85;1.20;;;0.80;72.50;;;;;;5113612;28;20374;-73
2022/03/06 02:52:18;;;;;;;2.45;0.95;;;0.80;72.50;;;;;;5078287;28;20100;-73
2022/03/06 02:54:44;;;;;;;1.27;0.88;;;0.90;72.60;;;;;;5113795;28;20035;-73
2022/03/06 02:57:11;;;;;;;1.42;1.00;;;0.70;72.60;;;;;;5112221;28;20427;-73
2022/03/06 02:59:37;;;;;;;1.77;1.10;;;0.70;72.60;;;;;;5113418;28;20039;-73
2022/03/06 03:02:04;;;;;;;1.90;1.08;;;0.70;72.70;;;;;;5113413;28;20031;-73
2022/03/06 03:04:32;;;;;;;2.83;1.20;;;0.70;72.80;;;;;;5113241;28;20126;-73
2022/03/06 03:06:58;;;;;;;1.52;0.95;;;0.70;72.80;;;;;;5113655;28;20478;-73
2022/03/06 03:09:25;;;;;;;2.70;1.20;;;0.70;72.70;;;;;;5113395;28;20088;-73
2022/03/06 03:11:51;;;;;;;1.98;1.10;;;0.70;72.70;;;;;;5113406;28;20054;-74
2022/03/06 03:14:18;;;;;;;3.58;1.30;;;0.70;72.70;;;;;;5113663;28;20100;-73
2022/03/06 03:16:44;;;;;;;1.65;0.90;;;0.70;72.80;;;;;;5113779;28;20047;-73
2022/03/06 03:19:09;;;;;;;1.67;1.02;;;0.60;72.70;;;;;;5094999;28;20036;-73
2022/03/06 03:21:36;;;;;;;2.28;1.40;;;0.60;72.70;;;;;;5094830;28;20370;-73
2022/03/06 03:24:02;;;;;;;2.50;1.27;;;0.60;72.70;;;;;;5095247;28;20067;-73
2022/03/06 03:26:27;;;;;;;2.50;1.20;;;0.60;72.80;;;;;;5113183;28;20039;-73
2022/03/06 03:28:53;;;;;;;2.35;1.27;;;0.60;72.80;;;;;;5094784;28;20044;-73
2022/03/06 03:31:19;;;;;;;2.15;1.25;;;0.50;72.80;;;;;;5112886;28;20039;-73
2022/03/06 03:33:45;;;;;;;2.33;1.40;;;0.50;72.90;;;;;;5095050;28;20484;-73
2022/03/06 03:36:11;;;;;;;2.17;1.20;;;0.50;73.00;;;;;;5095204;28;20039;-73
2022/03/06 03:38:39;;;;;;;2.72;1.40;;;0.50;73.00;;;;;;5112682;28;20042;-73
2022/03/06 03:41:05;;;;;;;2.67;1.40;;;0.50;73.00;;;;;;5113285;28;20044;-73
2022/03/06 03:43:31;;;;;;;2.38;1.20;;;0.40;72.90;;;;;;5094696;28;20366;-73
2022/03/06 03:45:58;;;;;;;3.45;1.50;;;0.50;73.00;;;;;;5094484;28;20050;-73
2022/03/06 03:48:25;;;;;;;3.15;1.25;;;0.50;73.10;;;;;;5094672;28;20385;-73
2022/03/06 03:50:52;;;;;;;2.70;1.30;;;0.40;73.00;;;;;;5094989;28;20043;-73
2022/03/06 03:53:18;;;;;;;2.03;1.30;;;0.40;73.00;;;;;;5112461;28;20048;-71
2022/03/06 03:55:44;;;;;;;2.45;1.27;;;0.40;73.10;;;;;;5094315;28;20371;-72
2022/03/06 03:58:10;;;;;;;2.38;1.23;;;0.40;73.10;;;;;;5112430;28;20050;-73
2022/03/06 04:00:35;;;;;;;2.30;1.30;;;0.40;73.10;;;;;;5112499;28;20074;-72
2022/03/06 04:03:01;;;;;;;1.95;1.20;;;0.40;73.10;;;;;;5112630;28;20077;-72
2022/03/06 04:05:27;;;;;;;1.75;1.05;;;0.40;73.10;;;;;;5112843;28;20393;-72
2022/03/06 04:07:53;;;;;;;1.73;0.95;;;0.40;73.10;;;;;;5113424;28;20071;-71
2022/03/06 04:10:19;;;;;;;2.33;1.30;;;0.40;73.10;;;;;;5116415;28;20044;-72
2022/03/06 04:12:45;;;;;;;2.47;1.10;;;0.40;73.10;;;;;;5098352;28;20050;-72
2022/03/06 04:15:11;;;;;;;1.35;0.82;;;0.40;73.10;;;;;;5116416;28;20039;-72
2022/03/06 04:17:37;;;;;;;1.33;0.85;;;0.40;73.10;;;;;;5116164;28;20035;-72
2022/03/06 04:20:04;;;;;;;1.95;1.25;;;0.40;73.20;;;;;;5116052;28;20040;-73
2022/03/06 04:22:29;;;;;;;2.30;1.20;;;0.40;73.20;;;;;;5116262;28;20055;-72
2022/03/06 04:24:55;;;;;;;1.90;1.00;;;0.40;73.20;;;;;;5096648;28;20048;-72
2022/03/06 04:27:21;;;;;;;2.97;1.40;;;0.30;73.20;;;;;;5115815;28;20043;-73
2022/03/06 04:29:47;;;;;;;2.80;1.20;;;0.30;73.20;;;;;;5115887;28;20031;-72
2022/03/06 04:32:12;;;;;;;2.03;0.93;;;0.30;73.20;;;;;;5097457;28;20032;-72
2022/03/06 04:34:38;;;;;;;1.27;0.88;;;0.30;73.30;;;;;;5115986;28;20507;-72
2022/03/06 04:37:05;;;;;;;2.65;1.20;;;0.30;73.40;;;;;;5115573;28;20112;-73
2022/03/06 04:39:31;;;;;;;2.80;1.23;;;0.10;73.30;;;;;;5080632;28;20039;-73
2022/03/06 04:41:56;;;;;;;1.92;1.20;;;0.20;73.40;;;;;;5115560;28;20077;-72
2022/03/06 04:44:23;;;;;;;1.67;0.95;;;0.20;73.40;;;;;;5115664;28;20039;-72
2022/03/06 04:46:49;;;;;;;1.95;0.98;;;0.20;73.50;;;;;;5115844;28;20042;-72
2022/03/06 04:49:15;;;;;;;2.72;1.25;;;0.20;73.50;;;;;;5115852;28;20055;-73
2022/03/06 04:51:41;;;;;;;2.47;1.27;;;0.10;73.50;;;;;;5115490;28;20043;-72
2022/03/06 04:54:07;;;;;;;1.42;0.95;;;0.10;73.60;;;;;;5097236;28;20050;-73
2022/03/06 04:56:33;;;;;;;1.52;1.00;;;0.20;73.60;;;;;;5115869;28;20074;-72
2022/03/06 04:58:59;;;;;;;1.90;1.00;;;0.10;73.60;;;;;;5115437;28;20541;-72
2022/03/06 05:01:25;;;;;;;1.95;0.98;;;0.10;73.70;;;;;;5115367;28;20071;-72
2022/03/06 05:03:51;;;;;;;2.45;1.10;;;0.10;73.80;;;;;;5116050;28;20071;-72
2022/03/06 05:06:16;;;;;;;2.20;1.20;;;0.10;73.80;;;;;;5116059;28;20123;-72
2022/03/06 05:08:42;;;;;;;1.75;1.15;;;0.00;73.80;;;;;;5115314;28;20043;-72
2022/03/06 05:11:08;;;;;;;2.97;1.30;;;0.00;73.80;;;;;;5115381;28;20423;-72
2022/03/06 05:13:34;;;;;;;1.63;0.95;;;0.00;73.80;;;;;;5097052;28;20048;-72
2022/03/06 05:16:00;;;;;;;1.15;0.75;;;0.00;73.80;;;;;;5115830;28;20473;-73
2022/03/06 05:18:25;;;;;;;1.67;0.85;;;0.00;73.80;;;;;;5115386;28;20028;-72
2022/03/06 05:20:51;;;;;;;1.90;1.20;;;0.00;73.90;;;;;;5096570;28;20061;-72
2022/03/06 05:23:17;;;;;;;2.33;1.25;;;0.00;73.90;;;;;;5080175;28;20089;-72
2022/03/06 05:25:44;;;;;;;1.98;1.00;;;-0.10;73.90;;;;;;5115377;28;20053;-72
2022/03/06 05:28:10;;;;;;;1.73;1.00;;;0.00;73.90;;;;;;5095259;28;20401;-72
2022/03/06 05:30:36;;;;;;;2.55;1.20;;;0.00;74.00;;;;;;5096811;28;20425;-72
2022/03/06 05:33:02;;;;;;;1.48;0.82;;;-0.10;73.90;;;;;;5096853;28;20050;-72
2022/03/06 05:35:28;;;;;;;1.95;1.15;;;0.00;73.90;;;;;;5115028;28;20114;-72
2022/03/06 05:37:54;;;;;;;1.75;0.77;;;0.00;74.00;;;;;;5115473;28;20036;-72
2022/03/06 05:40:20;;;;;;;1.85;1.08;;;0.00;74.00;;;;;;5115584;28;20044;-72
2022/03/06 05:42:45;;;;;;;1.67;0.77;;;-0.10;73.90;;;;;;5115461;28;20035;-72
2022/03/06 05:45:11;;;;;;;2.33;1.13;;;-0.10;73.90;;;;;;5114872;28;20131;-72
2022/03/06 05:47:37;;;;;;;1.20;0.90;;;-0.10;74.00;;;;;;5114680;28;20038;-72
2022/03/06 05:50:05;;;;;;;1.40;0.80;;;-0.10;74.00;;;;;;5079578;28;20027;-72
2022/03/06 05:52:31;;;;;;;1.67;0.77;;;-0.10;74.00;;;;;;5114794;28;20028;-72
2022/03/06 05:54:57;;;;;;;2.28;1.00;;;-0.10;74.00;;;;;;5096654;28;20042;-72
2022/03/06 05:57:24;;;;;;;1.77;0.93;;;-0.10;74.10;;;;;;5114731;28;20177;-72
2022/03/06 05:59:50;;;;;;;2.17;0.95;;;-0.10;74.10;;;;;;5114523;28;20035;-72
2022/03/06 06:02:16;;;;;;;1.42;0.80;;;-0.20;74.10;;;;;;5114397;28;20031;-72
2022/03/06 06:04:42;;;;;;;1.33;0.65;;;-0.20;74.20;;;;;;5114874;28;20052;-72
2022/03/06 06:07:09;;;;;;;1.77;0.80;;;-0.20;74.20;;;;;;5079255;28;20516;-72
2022/03/06 06:09:35;;;;;;;1.35;0.88;;;-0.20;74.30;;;;;;5114310;28;20043;-73
2022/03/06 06:12:01;;;;;;;1.20;0.77;;;-0.20;74.30;;;;;;5114520;28;20035;-72
2022/03/06 06:14:27;;;;;;;0.88;0.65;;;-0.20;74.30;;;;;;5114403;28;20397;-72
2022/03/06 06:16:52;;;;;;;1.55;0.82;;;-0.20;74.30;;;;;;5096096;28;20043;-74
2022/03/06 06:19:18;;;;;;;1.15;0.80;;;-0.20;74.30;;;;;;5096841;28;20085;-72
2022/03/06 06:21:44;;;;;;;1.20;0.80;;;-0.20;74.30;;;;;;5114674;28;20050;-72
2022/03/06 06:24:13;;;;;;;1.80;0.70;;;-0.20;74.30;;;;;;5114599;28;20043;-72
2022/03/06 06:26:40;;;;;;;1.95;1.02;;;-0.20;74.40;;;;;;5114522;28;20048;-72
2022/03/06 06:29:05;;;;;;;1.85;0.93;;;-0.20;74.40;;;;;;5096134;28;20039;-72
2022/03/06 06:31:31;;;;;;;2.30;1.20;;;-0.20;74.40;;;;;;5062358;28;20044;-72
2022/03/06 06:33:57;;;;;;;1.95;1.10;;;-0.20;74.40;;;;;;5114452;28;20044;-72
2022/03/06 06:36:23;;;;;;;2.35;1.13;;;-0.20;74.30;;;;;;5113913;28;20039;-72
2022/03/06 06:38:49;;;;;;;1.75;1.05;;;-0.10;74.30;;;;;;5114627;28;20059;-72
2022/03/06 06:41:15;;;;;;;2.13;1.20;;;-0.10;74.30;;;;;;5114060;28;20040;-72
2022/03/06 06:43:42;;;;;;;2.22;0.85;;;-0.10;74.30;;;;;;5095649;28;20165;-72
2022/03/06 06:46:09;;;;;;;2.30;1.20;;;-0.20;74.30;;;;;;5114023;28;20044;-72
2022/03/06 06:48:34;;;;;;;1.65;0.90;;;-0.20;74.30;;;;;;5096100;28;20050;-72
2022/03/06 06:51:00;;;;;;;1.90;1.00;;;-0.10;74.40;;;;;;5114259;28;20043;-72
2022/03/06 06:53:26;;;;;;;1.95;1.17;;;-0.20;74.40;;;;;;5113980;28;20438;-72
2022/03/06 06:55:52;;;;;;;1.48;1.00;;;-0.20;74.40;;;;;;5113887;28;20182;-72
2022/03/06 06:58:17;;;;;;;2.03;1.00;;;-0.20;74.40;;;;;;5095680;28;20431;-72
2022/03/06 07:00:43;;;;;;;2.10;0.90;;;-0.10;74.60;;;;;;5114029;28;20405;-73
2022/03/06 07:03:09;;;;;;;2.25;1.02;;;-0.20;74.40;;;;;;5114184;28;20043;-72
2022/03/06 07:05:35;;;;;;;2.60;1.20;;;-0.10;74.50;;;;;;5095914;28;20036;-72
2022/03/06 07:08:00;;;;;;;1.45;0.77;;;-0.10;74.50;;;;;;5113988;28;20044;-72
2022/03/06 07:10:26;;;;;;;1.63;0.98;;;-0.10;74.50;;;;;;5114048;28;20069;-72
2022/03/06 07:12:55;;;;;;;2.40;1.10;;;0.00;74.50;;;;;;5095170;28;20050;-72
2022/03/06 07:15:28;;;;;;;1.08;0.77;;;0.10;74.50;;;;;;5113733;28;20047;-72
2022/03/06 07:17:57;;;;;;;1.48;0.90;;;0.00;74.40;;;;;;5061663;28;20135;-73
2022/03/06 07:20:23;;;;;;;1.15;0.80;;;0.10;74.50;;;;;;5078545;28;20039;-74
2022/03/06 07:22:49;;;;;;;1.00;0.90;;;0.10;75.10;;;;;;5061890;28;20047;-71
2022/03/06 07:25:15;;;;;;;1.92;1.10;;;0.10;74.40;;;;;;5079072;28;20125;-72
2022/03/06 07:27:44;;;;;;;2.00;1.05;;;0.20;74.40;;;;;;5095130;28;20070;-72
2022/03/06 07:30:11;;;;;;;1.00;0.88;;;0.20;74.30;;;;;;5078268;28;20119;-72
2022/03/06 07:32:47;;;;;;;1.58;0.75;;;0.40;74.30;;;;;;5061548;28;20035;-73
2022/03/06 07:35:14;;;;;;;1.80;1.00;;;0.40;74.20;;;;;;5111824;28;20066;-73
2022/03/06 07:37:40;;;;;;;1.42;0.93;;;0.50;74.10;;;;;;5094923;28;20035;-72
2022/03/06 07:40:08;;;;;;;2.50;1.20;;;0.60;74.00;;;;;;5061890;28;20047;-71
2022/03/06 07:42:37;;;;;;;2.58;1.00;;;0.70;74.00;;;;;;5077616;28;20036;-72
2022/03/06 07:45:04;;;;;;;1.80;0.90;;;0.70;73.90;;;;;;5062134;28;20066;-72
2022/03/06 07:47:31;;;;;;;2.17;1.20;;;0.80;73.80;;;;;;5113504;28;20039;-72
2022/03/06 07:49:56;;;;;;;2.38;1.20;;;0.90;73.70;;;;;;5094673;28;20047;-72
2022/03/06 07:52:22;;;;;;;2.10;1.17;;;1.00;73.70;;;;;;5094631;28;20035;-73
2022/03/06 07:54:48;;;;;;;1.55;1.02;;;1.00;73.50;;;;;;5113128;28;20047;-72
2022/03/06 07:57:14;;;;;;;2.85;1.10;;;1.10;73.50;;;;;;5094808;28;20084;-72
2022/03/06 07:59:40;;;;;;;2.30;1.25;;;1.20;73.40;;;;;;5113222;28;20040;-72
2022/03/06 08:02:05;;;;;;;2.20;1.33;;;1.30;73.40;;;;;;5094491;28;20040;-72
2022/03/06 08:04:31;;;;;;;2.20;1.30;;;1.40;73.30;;;;;;5112606;28;20040;-72
2022/03/06 08:06:57;;;;;;;1.42;1.10;;;1.40;73.20;;;;;;5094314;28;20196;-72
2022/03/06 08:09:26;;;;;;;1.77;1.15;;;1.50;73.10;;;;;;5112563;28;20122;-72
2022/03/06 08:11:53;;;;;;;1.90;1.13;;;1.60;73.10;;;;;;5113030;28;20058;-73
2022/03/06 08:14:19;;;;;;;2.45;1.23;;;1.70;73.00;;;;;;5112353;28;20048;-73
2022/03/06 08:16:45;;;;;;;1.63;0.90;;;1.80;73.00;;;;;;5094525;28;20036;-73
2022/03/06 08:19:11;;;;;;;2.25;1.02;;;1.90;73.00;;;;;;5113196;28;20035;-72
2022/03/06 08:21:36;;;;;;;2.65;1.17;;;2.00;73.00;;;;;;5112973;28;20031;-72
2022/03/06 08:24:02;;;;;;;2.15;1.38;;;2.00;72.90;;;;;;5112811;28;20096;-72
2022/03/06 08:26:28;;;;;;;2.40;1.30;;;2.00;72.90;;;;;;5112786;28;20035;-72
2022/03/06 08:28:54;;;;;;;1.58;1.00;;;2.10;72.90;;;;;;5112961;28;20117;-72
2022/03/06 08:31:21;;;;;;;2.20;1.20;;;2.20;73.00;;;;;;5094177;28;20050;-72
2022/03/06 08:33:47;;;;;;;2.85;1.15;;;2.20;73.00;;;;;;5112247;28;20039;-72
2022/03/06 08:36:13;;;;;;;2.13;1.20;;;2.30;72.90;;;;;;5094186;28;20105;-72
2022/03/06 08:38:39;;;;;;;3.15;1.30;;;2.30;72.90;;;;;;5094589;28;20404;-72
2022/03/06 08:41:05;;;;;;;1.65;1.20;;;2.40;72.90;;;;;;5112099;28;20144;-72
2022/03/06 08:43:30;;;;;;;3.03;1.20;;;2.50;72.90;;;;;;5094709;28;20047;-72
2022/03/06 08:45:56;;;;;;;2.60;1.50;;;2.50;72.80;;;;;;5112094;28;20079;-72
2022/03/06 08:48:22;;;;;;;1.88;1.35;;;2.60;72.80;;;;;;5112104;28;20043;-73
2022/03/06 08:50:49;;;;;;;2.03;1.20;;;2.60;72.80;;;;;;5094584;28;20134;-72
2022/03/06 08:53:16;;;;;;;2.30;1.30;;;2.70;72.80;;;;;;5094787;28;20051;-72
2022/03/06 08:55:42;;;;;;;3.17;1.58;;;2.70;72.80;;;;;;5095600;28;20032;-73
2022/03/06 08:58:08;;;;;;;1.90;1.40;;;2.70;72.70;;;;;;5115673;28;20039;-71
2022/03/06 09:00:33;;;;;;;1.77;1.05;;;2.80;72.90;;;;;;5097266;28;20046;-72
2022/03/06 09:02:59;;;;;;;3.30;1.35;;;2.80;72.90;;;;;;5116204;28;20082;-73
2022/03/06 09:05:25;;;;;;;3.47;1.50;;;2.80;72.70;;;;;;5116172;28;20135;-73
2022/03/06 09:07:51;;;;;;;2.85;1.70;;;3.00;72.80;;;;;;5115558;28;20049;-73
2022/03/06 09:10:16;;;;;;;2.50;1.35;;;3.00;72.70;;;;;;5115882;28;20392;-73
2022/03/06 09:12:42;;;;;;;1.85;1.38;;;3.00;72.80;;;;;;5097086;28;20101;-72
2022/03/06 09:15:09;;;;;;;2.40;1.35;;;3.10;72.80;;;;;;5115764;28;20048;-72
2022/03/06 09:17:35;;;;;;;2.03;1.30;;;3.10;73.30;;;;;;5081028;28;20039;-72
2022/03/06 09:20:02;;;;;;;2.78;1.50;;;3.30;72.70;;;;;;5080834;28;20036;-73
2022/03/06 09:22:28;;;;;;;2.55;1.20;;;3.40;72.60;;;;;;5115647;28;20134;-73
2022/03/06 09:24:54;;;;;;;2.42;1.30;;;3.40;72.50;;;;;;5096910;28;20139;-73
2022/03/06 09:27:19;;;;;;;2.60;1.50;;;3.50;72.40;;;;;;5096943;28;20048;-72
2022/03/06 09:29:45;;;;;;;2.17;1.35;;;3.50;72.40;;;;;;5115499;28;20050;-72
2022/03/06 09:32:11;;;;;;;3.08;1.40;;;3.60;72.30;;;;;;5115122;28;20039;-72
2022/03/06 09:34:37;;;;;;;2.17;1.30;;;3.60;72.20;;;;;;5114957;28;20477;-72
2022/03/06 09:37:03;;;;;;;2.10;1.30;;;3.70;72.20;;;;;;5114979;28;20043;-72
2022/03/06 09:39:28;;;;;;;2.05;1.27;;;3.80;72.10;;;;;;5114942;28;20039;-73
2022/03/06 09:41:55;;;;;;;2.22;1.30;;;3.80;72.00;;;;;;5115543;28;20031;-72
2022/03/06 09:44:24;;;;;;;2.58;1.40;;;3.90;71.90;;;;;;5095382;28;20040;-71
2022/03/06 09:46:52;;;;;;;1.98;1.48;;;3.90;71.80;;;;;;5115551;28;20061;-72
2022/03/06 09:49:18;;;;;;;2.08;1.25;;;4.00;71.80;;;;;;5114925;28;20055;-72
2022/03/06 09:51:44;;;;;;;2.55;1.45;;;4.00;71.70;;;;;;5097031;28;20039;-72
2022/03/06 09:54:12;;;;;;;2.45;1.40;;;4.10;71.60;;;;;;5114774;28;20046;-72
2022/03/06 09:56:39;;;;;;;2.90;1.50;;;4.20;71.60;;;;;;5094652;28;20047;-72
2022/03/06 09:59:05;;;;;;;2.10;1.10;;;4.30;71.50;;;;;;5097318;28;20040;-72
2022/03/06 10:01:31;;;;;;;2.05;1.23;;;4.40;71.40;;;;;;5096629;28;20485;-72
2022/03/06 10:03:57;;;;;;;3.60;1.20;;;4.40;71.30;;;;;;5114763;28;20125;-72
2022/03/06 10:06:23;;;;;;;2.60;1.30;;;4.50;71.20;;;;;;5114678;28;20484;-74
2022/03/06 10:09:04;;;;;;;2.33;1.30;;;4.60;71.10;;;;;;5079537;28;20070;-72
2022/03/06 10:11:31;;;;;;;1.80;1.27;;;4.60;70.90;;;;;;5095354;28;20047;-72
2022/03/06 10:13:57;;;;;;;2.28;1.15;;;4.70;70.90;;;;;;5079447;28;20040;-73
2022/03/06 10:16:23;;;;;;;2.78;1.30;;;4.70;70.80;;;;;;5079326;28;20039;-73
2022/03/06 10:18:51;;;;;;;2.30;1.27;;;4.90;70.80;;;;;;5062876;28;20086;-73
2022/03/06 10:21:25;;;;;;;1.63;1.10;;;4.80;70.70;;;;;;5096066;28;20040;-73
2022/03/06 10:23:56;;;;;;;1.00;0.80;;;4.90;70.50;;;;;;5079906;28;20043;-73
2022/03/06 10:26:25;;;;;;;1.90;1.00;;;5.00;70.50;;;;;;5096935;28;20110;-73
2022/03/06 10:28:58;;;;;;;1.38;0.93;;;5.00;70.40;;;;;;5096522;28;20496;-74
2022/03/06 10:31:27;;;;;;;1.48;1.00;;;5.10;70.30;;;;;;5079393;28;20063;-71
2022/03/06 10:33:57;;;;;;;1.98;1.13;;;5.10;70.20;;;;;;5114118;28;20078;-74
2022/03/06 10:36:39;;;;;;;1.63;0.98;;;5.20;70.00;;;;;;5095858;28;20085;-73
2022/03/06 10:39:11;;;;;;;2.03;1.20;;;5.30;69.90;;;;;;5095005;28;20039;-74
2022/03/06 10:41:40;;;;;;;0.98;0.82;;;5.40;69.70;;;;;;5096186;28;20036;-73
2022/03/06 10:44:08;;;;;;;1.30;0.90;;;5.50;69.60;;;;;;5095848;28;20381;-74
2022/03/06 10:46:36;;;;;;;1.40;0.82;;;5.60;69.40;;;;;;5095717;28;20047;-74
2022/03/06 10:49:10;;;;;;;1.42;0.88;;;5.70;69.30;;;;;;5114353;28;20042;-74
2022/03/06 10:51:40;;;;;;;2.10;1.00;;;5.80;69.10;;;;;;5080231;28;20096;-74
2022/03/06 10:54:06;;;;;;;1.83;1.10;;;5.80;68.90;;;;;;5113873;28;20446;-74
2022/03/06 10:56:32;;;;;;;1.25;1.00;;;5.90;68.80;;;;;;5095639;28;20096;-74
2022/03/06 10:58:58;;;;;;;1.85;1.20;;;6.00;68.70;;;;;;5095967;28;20032;-72
2022/03/06 11:01:24;;;;;;;1.35;0.95;;;6.10;68.60;;;;;;5095503;28;20104;-73
2022/03/06 11:03:51;;;;;;;2.15;1.23;;;6.10;68.50;;;;;;5113449;28;20096;-71
2022/03/06 11:06:19;;;;;;;2.50;1.35;;;6.10;68.40;;;;;;5113734;28;20062;-74
2022/03/06 11:08:46;;;;;;;1.35;1.00;;;6.20;68.20;;;;;;5093346;28;20054;-73
2022/03/06 11:11:14;;;;;;;2.17;1.35;;;6.20;68.20;;;;;;5095182;28;20104;-73
2022/03/06 11:13:39;;;;;;;2.80;1.30;;;6.20;68.10;;;;;;5113771;28;20389;-73
2022/03/06 11:16:05;;;;;;;1.73;1.33;;;6.30;68.10;;;;;;5113327;28;20031;-73
2022/03/06 11:18:33;;;;;;;1.58;1.13;;;6.30;67.90;;;;;;5112368;28;20043;-72
2022/03/06 11:21:01;;;;;;;2.15;1.25;;;6.40;67.90;;;;;;5094959;28;20393;-73
2022/03/06 11:23:36;;;;;;;1.63;1.10;;;6.40;67.80;;;;;;5078471;28;20105;-73
2022/03/06 11:26:28;;;;;;;1.92;1.10;;;6.50;67.60;;;;;;5078564;28;20511;-72
2022/03/06 11:29:27;;;;;;;1.80;1.20;;;6.50;67.40;;;;;;5095012;28;20040;-72
2022/03/06 11:31:55;;;;;;;1.85;1.17;;;6.60;67.50;;;;;;5094816;28;20043;-73
2022/03/06 11:34:31;;;;;;;2.35;1.30;;;6.60;67.10;;;;;;5113203;28;20044;-72
2022/03/06 11:37:02;;;;;;;1.92;1.25;;;6.70;67.00;;;;;;5112278;28;20477;-72
2022/03/06 11:39:45;;;;;;;2.67;1.25;;;6.60;66.80;;;;;;5113018;28;20047;-73
2022/03/06 11:42:42;;;;;;;3.05;1.50;;;6.70;66.80;;;;;;5111980;28;20043;-73
2022/03/06 11:45:07;;;;;;;2.40;1.35;;;6.70;66.70;;;;;;5112785;28;20063;-73
2022/03/06 11:47:40;;;;;;;1.95;1.30;;;6.80;66.60;;;;;;5078013;28;20607;-71
2022/03/06 11:50:07;;;;;;;2.30;1.27;;;7.00;66.40;;;;;;5095419;28;20549;-73
2022/03/06 11:52:35;;;;;;;1.65;1.13;;;7.10;66.00;;;;;;5077961;28;20044;-74
2022/03/06 11:55:23;;;;;;;2.22;1.23;;;7.20;65.60;;;;;;5113350;28;20047;-73
2022/03/06 11:57:50;;;;;;;2.17;1.25;;;7.10;65.50;;;;;;5112467;28;20039;-74
2022/03/06 12:00:23;;;;;;;1.83;1.30;;;7.10;65.60;;;;;;5094865;28;20136;-72
2022/03/06 12:02:51;;;;;;;1.80;1.27;;;7.20;65.70;;;;;;5113277;28;20040;-73
2022/03/06 12:05:19;;;;;;;1.98;1.20;;;7.30;65.50;;;;;;5095023;28;20044;-74
2022/03/06 12:07:46;;;;;;;2.55;1.42;;;7.40;65.20;;;;;;5113279;28;20036;-74
2022/03/06 12:10:14;;;;;;;1.15;0.98;;;7.50;65.00;;;;;;5094519;28;20040;-74
2022/03/06 12:12:39;;;;;;;1.20;0.88;;;7.60;64.80;;;;;;5094754;28;20055;-73
2022/03/06 12:15:16;;;;;;;2.05;1.10;;;7.80;64.70;;;;;;5095028;28;20102;-72
2022/03/06 12:17:42;;;;;;;1.55;1.05;;;8.00;64.40;;;;;;5111799;28;20477;-72
2022/03/06 12:20:22;;;;;;;1.70;1.10;;;8.20;64.20;;;;;;5112473;28;20048;-72
2022/03/06 12:22:51;;;;;;;1.42;1.00;;;8.30;63.90;;;;;;5112661;28;20043;-72
2022/03/06 12:25:19;;;;;;;2.17;1.30;;;8.40;63.60;;;;;;5077539;28;20046;-72
2022/03/06 12:28:15;;;;;;;1.42;1.17;;;8.30;63.40;;;;;;5094310;28;20046;-72
2022/03/06 12:30:40;;;;;;;2.00;1.25;;;8.00;63.80;;;;;;5113996;28;20539;-72
2022/03/06 12:33:27;;;;;;;0.95;0.85;;;7.70;64.30;;;;;;5116403;28;20032;-72
2022/03/06 12:36:11;;;;;;;0.95;0.82;;;7.50;64.90;;;;;;5116212;28;20043;-72
2022/03/06 12:38:37;;;;;;;1.67;0.90;;;7.70;65.20;;;;;;5116264;28;20127;-72
2022/03/06 12:41:05;;;;;;;1.88;1.30;;;7.70;65.00;;;;;;5116298;28;20043;-72
2022/03/06 12:43:32;;;;;;;2.70;1.50;;;7.80;64.50;;;;;;5097809;28;20100;-72
2022/03/06 12:45:59;;;;;;;1.30;1.20;;;7.90;64.40;;;;;;5116304;28;20047;-72
2022/03/06 12:48:25;;;;;;;2.03;1.33;;;8.00;64.00;;;;;;5080726;28;20111;-72
2022/03/06 12:50:51;;;;;;;1.65;1.27;;;8.20;63.70;;;;;;5115788;28;20097;-72
2022/03/06 12:53:17;;;;;;;2.65;1.40;;;8.20;63.60;;;;;;5115959;28;20461;-73
2022/03/06 12:55:44;;;;;;;1.60;1.10;;;8.30;63.50;;;;;;5115809;28;20043;-74